Time;durP1;ratioP1;P1;durP2;ratioP2;P2;SDS_P1;SDS_P2;PMS_P1;PMS_P2;Temp;Humidity;BMP_temperature;BMP_pressure;BME280_temperature;BME280_humidity;BME280_pressure;Samples;Min_cycle;Max_cycle;Signal;HPM_P1;HPM_P2
2022/10/15 00:00:07;;;;;;;1.30;0.10;;;17.10;99.90;;;;;;6274965;28;20518;-82
2022/10/15 00:03:10;;;;;;;1.02;0.10;;;17.10;99.90;;;;;;6275853;28;20049;-82
2022/10/15 00:06:13;;;;;;;0.22;0.10;;;17.10;99.90;;;;;;6275061;28;20052;-82
2022/10/15 00:09:15;;;;;;;0.20;0.10;;;17.10;99.90;;;;;;6275518;28;20060;-82
2022/10/15 00:12:17;;;;;;;0.08;0.05;;;17.10;99.90;;;;;;6275105;28;20052;-82
2022/10/15 00:15:19;;;;;;;0.22;0.10;;;17.20;99.90;;;;;;6275634;28;20048;-82
2022/10/15 00:18:22;;;;;;;1.25;0.10;;;17.10;99.90;;;;;;6274405;28;20059;-82
2022/10/15 00:21:23;;;;;;;0.28;0.10;;;17.10;99.90;;;;;;6273901;28;20088;-82
2022/10/15 00:24:25;;;;;;;3.22;0.10;;;17.10;99.90;;;;;;6275066;28;20049;-82
2022/10/15 00:27:27;;;;;;;0.10;0.00;;;17.10;99.90;;;;;;6274576;28;20041;-82
2022/10/15 00:30:28;;;;;;;0.82;0.00;;;17.20;99.90;;;;;;6275216;28;20186;-81
2022/10/15 00:33:32;;;;;;;0.10;0.10;;;17.20;99.90;;;;;;6275117;28;20056;-81
2022/10/15 00:36:35;;;;;;;4.07;0.30;;;17.20;99.90;;;;;;6274920;28;20045;-82
2022/10/15 00:39:37;;;;;;;1.00;0.20;;;17.20;99.90;;;;;;6274414;28;20044;-81
2022/10/15 00:42:38;;;;;;;0.30;0.10;;;17.20;99.90;;;;;;6274463;28;20052;-82
2022/10/15 00:45:40;;;;;;;0.20;0.10;;;17.20;99.90;;;;;;6270666;28;20076;-82
2022/10/15 00:48:44;;;;;;;0.43;0.15;;;17.20;99.90;;;;;;6273433;28;20600;-82
2022/10/15 00:51:49;;;;;;;1.25;0.30;;;17.20;99.90;;;;;;6274556;28;20048;-82
2022/10/15 00:54:55;;;;;;;2.92;0.40;;;17.20;99.90;;;;;;6273473;28;20049;-82
2022/10/15 00:58:00;;;;;;;0.80;0.30;;;17.20;99.90;;;;;;6273577;28;20041;-82
2022/10/15 01:01:02;;;;;;;1.38;0.20;;;17.20;99.90;;;;;;6274157;28;20047;-81
2022/10/15 01:04:07;;;;;;;0.25;0.03;;;17.30;99.90;;;;;;6275989;28;20187;-82
2022/10/15 01:07:08;;;;;;;1.98;0.10;;;17.30;99.90;;;;;;6275876;28;20064;-81
2022/10/15 01:10:11;;;;;;;1.77;0.10;;;17.30;99.90;;;;;;6274822;28;20064;-81
2022/10/15 01:13:22;;;;;;;0.35;0.22;;;17.30;99.90;;;;;;6274957;28;20415;-81
2022/10/15 01:16:32;;;;;;;1.23;0.20;;;17.20;99.90;;;;;;6275022;28;20080;-81
2022/10/15 01:20:14;;;;;;;2.53;0.30;;;17.20;99.90;;;;;;6274991;28;20053;-82
2022/10/15 01:23:46;;;;;;;2.33;0.30;;;17.20;99.90;;;;;;6243667;28;20053;-81
2022/10/15 01:27:22;;;;;;;3.47;0.40;;;17.30;99.90;;;;;;6275186;28;20500;-82
2022/10/15 01:30:30;;;;;;;4.22;0.40;;;17.20;99.90;;;;;;6267582;28;20056;-83
2022/10/15 01:33:36;;;;;;;0.68;0.28;;;17.20;99.90;;;;;;6274676;28;20056;-81
2022/10/15 01:36:44;;;;;;;2.00;0.15;;;17.20;99.90;;;;;;6274597;28;20105;-81
2022/10/15 01:39:52;;;;;;;0.30;0.20;;;17.20;99.90;;;;;;6274300;28;20052;-81
2022/10/15 01:42:56;;;;;;;;;;;17.20;99.90;;;;;;6275886;28;20045;-81
2022/10/15 01:46:04;;;;;;;0.98;0.22;;;17.20;99.90;;;;;;6274613;28;19928;-81
2022/10/15 01:49:07;;;;;;;;;;;17.20;99.90;;;;;;6274731;28;20045;-82
2022/10/15 01:52:13;;;;;;;1.00;0.30;;;17.10;99.90;;;;;;6273714;28;20410;-81
2022/10/15 01:55:16;;;;;;;1.83;0.10;;;17.10;99.90;;;;;;6274096;28;20075;-82
2022/10/15 01:58:18;;;;;;;1.15;0.22;;;17.20;99.90;;;;;;6272726;28;20049;-82
2022/10/15 02:01:22;;;;;;;0.30;0.25;;;17.20;99.90;;;;;;6273807;28;20049;-82
2022/10/15 02:04:25;;;;;;;0.95;0.20;;;17.20;99.90;;;;;;6274474;28;20049;-82
2022/10/15 02:07:36;;;;;;;1.17;0.30;;;17.20;99.90;;;;;;6277119;28;20052;-82
2022/10/15 02:10:42;;;;;;;2.50;0.25;;;17.10;99.90;;;;;;6277340;28;20055;-81
2022/10/15 02:13:55;;;;;;;2.53;0.28;;;17.10;99.90;;;;;;6278095;28;20052;-81
2022/10/15 02:17:05;;;;;;;1.73;0.40;;;17.10;99.90;;;;;;6279438;28;20061;-81
2022/10/15 02:20:11;;;;;;;0.43;0.20;;;17.10;99.90;;;;;;6279291;28;20045;-81
2022/10/15 02:23:18;;;;;;;0.13;0.13;;;17.10;99.90;;;;;;6279987;28;20049;-81
2022/10/15 02:26:24;;;;;;;0.70;0.50;;;17.10;99.90;;;;;;6280107;28;20502;-81
2022/10/15 02:29:30;;;;;;;1.17;0.35;;;17.20;99.90;;;;;;6278785;28;20520;-81
2022/10/15 02:32:35;;;;;;;0.70;0.32;;;17.20;99.90;;;;;;6281094;28;20056;-81
2022/10/15 02:35:37;;;;;;;3.22;0.47;;;17.20;99.90;;;;;;6281749;28;20663;-81
2022/10/15 02:38:42;;;;;;;0.95;0.38;;;17.20;99.90;;;;;;6278741;28;20052;-82
2022/10/15 02:41:45;;;;;;;0.50;0.20;;;17.20;99.90;;;;;;6278823;28;20049;-82
2022/10/15 02:44:47;;;;;;;0.30;0.20;;;17.20;99.90;;;;;;6278718;28;20048;-81
2022/10/15 02:47:50;;;;;;;1.92;0.20;;;17.30;99.90;;;;;;6279260;28;20049;-81
2022/10/15 02:50:52;;;;;;;2.67;0.30;;;17.30;99.90;;;;;;6278061;28;20060;-82
2022/10/15 02:53:53;;;;;;;2.13;0.22;;;17.30;99.90;;;;;;6276685;28;20502;-82
2022/10/15 02:56:55;;;;;;;0.82;0.20;;;17.30;99.90;;;;;;6276705;28;20048;-82
2022/10/15 02:59:57;;;;;;;0.20;0.20;;;17.30;99.90;;;;;;6275818;28;20723;-82
2022/10/15 03:03:00;;;;;;;0.73;0.30;;;17.40;99.90;;;;;;6276286;28;20049;-82
2022/10/15 03:06:02;;;;;;;4.20;0.55;;;17.40;99.90;;;;;;6297552;28;20417;-82
2022/10/15 03:09:04;;;;;;;2.25;0.47;;;17.40;99.90;;;;;;6302384;28;20056;-82
2022/10/15 03:12:06;;;;;;;0.40;0.20;;;17.40;99.90;;;;;;6302239;28;20059;-82
2022/10/15 03:15:09;;;;;;;7.97;1.20;;;17.40;99.90;;;;;;6303468;28;20052;-82
2022/10/15 03:18:12;;;;;;;1.42;0.35;;;17.40;99.90;;;;;;6301131;28;20074;-82
2022/10/15 03:21:13;;;;;;;0.68;0.20;;;17.40;99.90;;;;;;6302713;28;20053;-82
2022/10/15 03:24:15;;;;;;;0.98;0.20;;;17.30;99.90;;;;;;6303295;28;20056;-82
2022/10/15 03:27:17;;;;;;;5.30;0.50;;;17.30;99.90;;;;;;6303466;28;20052;-82
2022/10/15 03:30:18;;;;;;;1.73;0.43;;;17.30;99.90;;;;;;6292806;28;20167;-82
2022/10/15 03:33:21;;;;;;;0.45;0.20;;;17.40;99.90;;;;;;6277409;28;20080;-83
2022/10/15 03:36:23;;;;;;;0.60;0.30;;;17.40;99.90;;;;;;6279160;28;20045;-82
2022/10/15 03:39:25;;;;;;;3.63;0.70;;;17.40;99.90;;;;;;6278628;28;20045;-82
2022/10/15 03:42:26;;;;;;;0.82;0.50;;;17.40;99.90;;;;;;6278121;28;20135;-82
2022/10/15 03:45:28;;;;;;;0.75;0.43;;;17.40;99.90;;;;;;6278368;28;20052;-83
2022/10/15 03:48:31;;;;;;;3.58;0.73;;;17.30;99.90;;;;;;6277968;28;20056;-82
2022/10/15 03:51:33;;;;;;;3.45;1.17;;;17.40;99.90;;;;;;6278919;28;20041;-82
2022/10/15 03:54:35;;;;;;;0.30;0.20;;;17.40;99.90;;;;;;6277397;28;20064;-82
2022/10/15 03:57:37;;;;;;;1.48;0.40;;;17.40;99.90;;;;;;6272358;28;20049;-82
2022/10/15 04:00:41;;;;;;;0.50;0.30;;;17.50;99.90;;;;;;6272450;28;20044;-82
2022/10/15 04:03:44;;;;;;;0.57;0.30;;;17.40;99.90;;;;;;6273726;28;20045;-82
2022/10/15 04:06:46;;;;;;;0.80;0.20;;;17.50;99.90;;;;;;6273428;28;20053;-82
2022/10/15 04:09:48;;;;;;;0.80;0.30;;;17.40;99.90;;;;;;6273294;28;20049;-82
2022/10/15 04:12:50;;;;;;;1.05;0.50;;;17.40;99.90;;;;;;6274821;28;20049;-81
2022/10/15 04:15:51;;;;;;;1.33;0.93;;;17.40;99.90;;;;;;6276036;28;20056;-81
2022/10/15 04:18:56;;;;;;;1.20;0.43;;;17.50;99.90;;;;;;6275602;28;20414;-81
2022/10/15 04:21:58;;;;;;;2.38;0.47;;;17.50;99.90;;;;;;6276601;28;20045;-81
2022/10/15 04:24:59;;;;;;;4.45;0.68;;;17.50;99.90;;;;;;6276525;28;20045;-81
2022/10/15 04:28:02;;;;;;;1.83;0.63;;;17.50;99.90;;;;;;6272741;28;20044;-81
2022/10/15 04:31:03;;;;;;;7.40;2.55;;;17.60;99.90;;;;;;6272589;28;20045;-81
2022/10/15 04:34:07;;;;;;;1.65;0.43;;;17.50;99.90;;;;;;6273032;28;20495;-81
2022/10/15 04:37:08;;;;;;;1.50;0.50;;;17.50;99.90;;;;;;6273311;28;20049;-81
2022/10/15 04:40:12;;;;;;;3.60;0.70;;;17.50;99.90;;;;;;6272094;28;20057;-82
2022/10/15 04:43:13;;;;;;;4.75;0.88;;;17.40;99.90;;;;;;6272519;28;20130;-81
2022/10/15 04:46:15;;;;;;;1.40;0.50;;;17.40;99.90;;;;;;6272829;28;20049;-82
2022/10/15 04:49:18;;;;;;;1.25;0.60;;;17.40;99.90;;;;;;6272989;28;20040;-81
2022/10/15 04:52:20;;;;;;;0.80;0.45;;;17.40;99.90;;;;;;6272821;28;20056;-81
2022/10/15 04:55:21;;;;;;;6.70;0.88;;;17.40;99.90;;;;;;6273417;28;20049;-82
2022/10/15 04:58:23;;;;;;;1.92;0.60;;;17.40;99.90;;;;;;6273330;28;20045;-82
2022/10/15 05:01:25;;;;;;;3.65;0.60;;;17.40;99.90;;;;;;6273114;28;20052;-81
2022/10/15 05:04:28;;;;;;;1.83;0.50;;;17.40;99.90;;;;;;6273211;28;20052;-82
2022/10/15 05:07:30;;;;;;;1.48;0.60;;;17.40;99.90;;;;;;6273786;28;20063;-81
2022/10/15 05:10:32;;;;;;;3.08;0.65;;;17.40;99.90;;;;;;6272805;28;20084;-81
2022/10/15 05:13:35;;;;;;;0.60;0.40;;;17.30;99.90;;;;;;6272897;28;20048;-81
2022/10/15 05:16:36;;;;;;;2.50;0.68;;;17.30;99.90;;;;;;6272894;28;20048;-81
2022/10/15 05:19:40;;;;;;;1.30;0.55;;;17.20;99.90;;;;;;6273260;28;20053;-81
2022/10/15 05:22:41;;;;;;;2.58;0.70;;;17.20;99.90;;;;;;6273219;28;20461;-81
2022/10/15 05:25:43;;;;;;;2.55;0.68;;;17.30;99.90;;;;;;6273524;28;20608;-81
2022/10/15 05:28:45;;;;;;;4.05;0.93;;;17.20;99.90;;;;;;6272808;28;20045;-81
2022/10/15 05:31:50;;;;;;;4.57;0.60;;;17.20;99.90;;;;;;6272392;28;20044;-80
2022/10/15 05:34:54;;;;;;;2.00;0.50;;;17.30;99.90;;;;;;6273822;28;20055;-81
2022/10/15 05:37:55;;;;;;;3.72;0.77;;;17.20;99.90;;;;;;6272261;28;20132;-81
2022/10/15 05:40:57;;;;;;;1.20;0.57;;;17.20;99.90;;;;;;6272905;28;20052;-81
2022/10/15 05:43:59;;;;;;;1.60;0.60;;;17.20;99.90;;;;;;6272402;28;20045;-81
2022/10/15 05:47:00;;;;;;;0.98;0.68;;;17.20;99.90;;;;;;6273545;28;20514;-81
2022/10/15 05:50:04;;;;;;;2.35;0.90;;;17.10;99.90;;;;;;6273534;28;20045;-81
2022/10/15 05:53:06;;;;;;;1.67;0.40;;;17.10;99.90;;;;;;6273868;28;20049;-81
2022/10/15 05:56:08;;;;;;;1.40;0.60;;;17.10;99.90;;;;;;6273893;28;20044;-81
2022/10/15 05:59:09;;;;;;;1.40;0.88;;;17.10;99.90;;;;;;6273335;28;20539;-81
2022/10/15 06:02:14;;;;;;;2.42;0.50;;;17.10;99.90;;;;;;6273785;28;20063;-81
2022/10/15 06:05:17;;;;;;;4.70;1.08;;;17.10;99.90;;;;;;6272908;28;20049;-81
2022/10/15 06:08:19;;;;;;;4.18;0.70;;;17.10;99.90;;;;;;6273241;28;20056;-81
2022/10/15 06:11:21;;;;;;;5.40;0.75;;;17.20;99.90;;;;;;6274436;28;20053;-81
2022/10/15 06:14:23;;;;;;;2.22;0.70;;;17.30;99.90;;;;;;6274302;28;20494;-81
2022/10/15 06:17:25;;;;;;;2.05;0.80;;;17.30;99.90;;;;;;6273025;28;20059;-82
2022/10/15 06:20:28;;;;;;;2.03;0.60;;;17.30;99.90;;;;;;6274540;28;20049;-82
2022/10/15 06:23:29;;;;;;;1.30;0.60;;;17.20;99.90;;;;;;6272921;28;20049;-81
2022/10/15 06:26:31;;;;;;;1.65;0.98;;;17.20;99.90;;;;;;6273646;28;20057;-81
2022/10/15 06:29:33;;;;;;;2.83;1.30;;;17.30;99.90;;;;;;6274289;28;20597;-82
2022/10/15 06:32:34;;;;;;;5.53;1.10;;;17.30;99.90;;;;;;6272795;28;20430;-82
2022/10/15 06:35:39;;;;;;;2.92;1.27;;;17.40;99.90;;;;;;6274856;28;20044;-82
2022/10/15 06:38:42;;;;;;;1.15;0.63;;;17.40;99.90;;;;;;6273721;28;20105;-82
2022/10/15 06:41:44;;;;;;;2.17;1.17;;;17.40;99.90;;;;;;6274406;28;20502;-82
2022/10/15 06:44:46;;;;;;;9.52;5.32;;;17.40;99.90;;;;;;6273951;28;20048;-82
2022/10/15 06:47:47;;;;;;;12.07;2.30;;;17.50;99.90;;;;;;6274159;28;20045;-81
2022/10/15 06:50:50;;;;;;;3.70;1.83;;;17.60;99.90;;;;;;6274515;28;20049;-82
2022/10/15 06:53:52;;;;;;;1.77;1.00;;;17.70;99.90;;;;;;6278654;28;20418;-81
2022/10/15 06:56:54;;;;;;;4.25;0.82;;;17.80;99.90;;;;;;6278966;28;20049;-82
2022/10/15 06:59:56;;;;;;;3.80;0.73;;;17.80;99.90;;;;;;6277922;28;20049;-81
2022/10/15 07:03:02;;;;;;;6.18;0.95;;;17.90;99.90;;;;;;6276343;22;20240;-82
2022/10/15 07:06:07;;;;;;;2.40;1.27;;;18.10;99.90;;;;;;6258245;28;20053;-82
2022/10/15 07:09:08;;;;;;;1.52;0.70;;;18.00;99.90;;;;;;6258122;28;20069;-81
2022/10/15 07:12:10;;;;;;;2.30;0.70;;;18.00;99.90;;;;;;6258221;28;20080;-80
2022/10/15 07:15:12;;;;;;;3.05;1.13;;;18.10;99.90;;;;;;6259091;28;20079;-82
2022/10/15 07:18:13;;;;;;;3.97;0.93;;;18.10;99.90;;;;;;6257568;28;20052;-81
2022/10/15 07:21:16;;;;;;;2.28;0.90;;;18.00;99.90;;;;;;6257774;28;20049;-81
2022/10/15 07:24:18;;;;;;;8.98;2.90;;;18.00;99.90;;;;;;6257732;28;20059;-83
2022/10/15 07:27:22;;;;;;;7.85;1.05;;;18.00;99.90;;;;;;6256996;28;20041;-81
2022/10/15 07:30:26;;;;;;;3.10;0.70;;;17.90;99.90;;;;;;6256841;28;20768;-82
2022/10/15 07:33:28;;;;;;;1.05;0.70;;;17.80;99.90;;;;;;6254959;28;20038;-81
2022/10/15 07:36:31;;;;;;;6.78;1.08;;;17.80;99.90;;;;;;6238981;28;20049;-81
2022/10/15 07:39:32;;;;;;;5.90;1.08;;;17.80;99.90;;;;;;6231657;28;20050;-80
2022/10/15 07:42:34;;;;;;;1.33;0.70;;;17.80;99.90;;;;;;6231498;28;20054;-81
2022/10/15 07:45:35;;;;;;;6.50;1.85;;;17.80;99.90;;;;;;6229610;28;20054;-82
2022/10/15 07:48:37;;;;;;;18.02;10.23;;;17.80;99.90;;;;;;6231058;28;20046;-80
2022/10/15 07:51:41;;;;;;;1.85;1.00;;;17.80;99.90;;;;;;6230774;28;20180;-81
2022/10/15 07:54:42;;;;;;;1.77;1.02;;;17.90;99.90;;;;;;6230420;28;20041;-81
2022/10/15 07:57:44;;;;;;;4.55;0.80;;;18.00;99.90;;;;;;6232990;28;20053;-80
2022/10/15 08:00:46;;;;;;;2.05;0.80;;;18.10;99.90;;;;;;6229447;28;20058;-81
2022/10/15 08:03:48;;;;;;;2.08;0.57;;;18.00;99.90;;;;;;6203687;28;20053;-79
2022/10/15 08:06:51;;;;;;;1.17;0.80;;;18.00;99.90;;;;;;6260939;28;20049;-82
2022/10/15 08:09:52;;;;;;;3.45;1.33;;;17.90;99.90;;;;;;6271930;28;20048;-81
2022/10/15 08:12:54;;;;;;;1.48;0.60;;;18.00;99.90;;;;;;6269485;28;20128;-81
2022/10/15 08:15:57;;;;;;;1.52;1.00;;;17.90;99.90;;;;;;6250385;28;20056;-80
2022/10/15 08:18:59;;;;;;;7.47;1.20;;;18.20;99.90;;;;;;6277295;28;20052;-81
2022/10/15 08:22:02;;;;;;;1.73;0.80;;;18.20;99.90;;;;;;6276897;28;20045;-80
2022/10/15 08:25:05;;;;;;;1.10;0.65;;;18.20;99.90;;;;;;6277166;28;20083;-80
2022/10/15 08:28:08;;;;;;;2.35;0.77;;;18.20;99.90;;;;;;6277340;28;20045;-79
2022/10/15 08:31:10;;;;;;;0.95;0.32;;;18.10;99.90;;;;;;6273223;28;20052;-80
2022/10/15 08:34:12;;;;;;;14.63;1.17;;;18.10;99.90;;;;;;6269852;28;20048;-80
2022/10/15 08:37:15;;;;;;;3.70;2.25;;;18.20;99.90;;;;;;6228926;28;20049;-78
2022/10/15 08:40:17;;;;;;;2.58;0.73;;;18.40;99.90;;;;;;6262115;28;20049;-80
2022/10/15 08:43:22;;;;;;;1.25;0.45;;;18.40;99.90;;;;;;6273632;28;20060;-81
2022/10/15 08:46:31;;;;;;;1.60;0.60;;;18.30;99.90;;;;;;6275336;28;20055;-80
2022/10/15 08:49:43;;;;;;;1.70;0.60;;;18.10;99.90;;;;;;6274104;28;20052;-82
2022/10/15 08:52:49;;;;;;;7.40;0.77;;;18.00;99.90;;;;;;6273369;28;20429;-82
2022/10/15 08:55:53;;;;;;;2.45;0.68;;;18.00;99.90;;;;;;6274224;28;20494;-79
2022/10/15 08:59:04;;;;;;;7.97;2.63;;;18.00;99.90;;;;;;6274905;28;20057;-81
2022/10/15 09:02:13;;;;;;;1.35;0.70;;;18.10;99.90;;;;;;6287276;28;20789;-81
2022/10/15 09:05:31;;;;;;;2.38;0.80;;;18.10;99.90;;;;;;6291759;28;20049;-81
2022/10/15 09:08:42;;;;;;;1.30;0.45;;;18.10;99.90;;;;;;6275872;28;20049;-82
2022/10/15 09:11:53;;;;;;;3.95;0.80;;;18.30;99.90;;;;;;6266650;28;20053;-82
2022/10/15 09:14:57;;;;;;;1.55;0.47;;;18.30;99.90;;;;;;6276077;28;20626;-81
2022/10/15 09:17:59;;;;;;;1.95;0.40;;;18.40;99.90;;;;;;6275849;28;20053;-80
2022/10/15 09:21:03;;;;;;;1.88;0.63;;;18.60;99.90;;;;;;6273576;28;20525;-80
2022/10/15 09:24:10;;;;;;;1.98;0.50;;;18.80;99.90;;;;;;6274121;28;20045;-83
2022/10/15 09:27:20;;;;;;;0.73;0.47;;;19.30;99.90;;;;;;6275314;28;20049;-83
2022/10/15 09:30:30;;;;;;;1.77;0.47;;;19.40;99.90;;;;;;6273520;28;20475;-82
2022/10/15 09:33:37;;;;;;;0.45;0.30;;;19.40;99.90;;;;;;6274583;28;20053;-81
2022/10/15 09:36:43;;;;;;;1.65;0.50;;;19.50;99.90;;;;;;6253190;28;20048;-82
2022/10/15 09:39:58;;;;;;;5.90;0.60;;;19.80;99.90;;;;;;6255185;28;20522;-82
2022/10/15 09:43:01;;;;;;;2.00;0.30;;;20.00;99.90;;;;;;6274454;28;20055;-82
2022/10/15 09:46:03;;;;;;;1.55;0.25;;;20.00;99.90;;;;;;6273678;28;20049;-84
2022/10/15 09:49:17;;;;;;;0.32;0.20;;;20.00;99.90;;;;;;6273206;28;20055;-81
2022/10/15 09:52:27;;;;;;;1.40;0.35;;;19.80;99.90;;;;;;6273346;28;20064;-81
2022/10/15 09:55:38;;;;;;;1.52;0.35;;;19.90;99.90;;;;;;6273852;28;20454;-81
2022/10/15 09:58:51;;;;;;;0.85;0.38;;;19.80;99.90;;;;;;6273195;28;20446;-82
2022/10/15 10:02:00;;;;;;;2.20;0.30;;;19.80;99.90;;;;;;6273322;28;20056;-82
2022/10/15 10:05:18;;;;;;;4.97;0.60;;;19.70;99.90;;;;;;6273629;28;20048;-82
2022/10/15 10:08:24;;;;;;;2.78;0.60;;;19.60;99.90;;;;;;6260197;28;20088;-82
2022/10/15 10:11:45;;;;;;;2.58;1.15;;;19.60;99.90;;;;;;6265873;28;20422;-81
2022/10/15 10:14:54;;;;;;;1.38;0.68;;;19.50;99.90;;;;;;6274284;28;20052;-82
2022/10/15 10:17:57;;;;;;;0.70;0.30;;;19.50;99.90;;;;;;6268698;28;20041;-83
2022/10/15 10:21:00;;;;;;;1.35;0.57;;;19.40;99.90;;;;;;6273258;28;20057;-82
2022/10/15 10:24:18;;;;;;;1.27;0.55;;;19.60;99.90;;;;;;6273641;28;20045;-79
2022/10/15 10:27:26;;;;;;;5.78;0.60;;;19.80;99.90;;;;;;6277990;28;20421;-83
2022/10/15 10:30:27;;;;;;;1.50;0.28;;;19.90;99.90;;;;;;6278867;28;20048;-81
2022/10/15 10:33:32;;;;;;;0.50;0.20;;;20.20;99.90;;;;;;6279229;28;20056;-82
2022/10/15 10:36:35;;;;;;;2.13;0.60;;;20.30;99.90;;;;;;6276334;28;20051;-81
2022/10/15 10:39:37;;;;;;;3.13;0.60;;;20.50;99.90;;;;;;6255481;28;20061;-81
2022/10/15 10:42:40;;;;;;;4.20;0.57;;;20.60;99.90;;;;;;6253947;28;20049;-83
2022/10/15 10:45:53;;;;;;;4.07;0.45;;;20.90;99.90;;;;;;6254158;28;20045;-82
2022/10/15 10:48:55;;;;;;;5.28;0.40;;;21.00;99.90;;;;;;6253283;28;20049;-82
2022/10/15 10:51:56;;;;;;;1.63;0.45;;;21.20;99.90;;;;;;6254550;28;20062;-81
2022/10/15 10:55:02;;;;;;;7.32;0.63;;;21.60;99.90;;;;;;6254321;28;20045;-81
2022/10/15 10:58:05;;;;;;;2.70;0.45;;;22.00;99.90;;;;;;6253821;28;20529;-81
2022/10/15 11:01:11;;;;;;;3.55;0.40;;;22.30;99.90;;;;;;6254490;28;20045;-82
2022/10/15 11:04:14;;;;;;;5.57;0.75;;;22.30;99.90;;;;;;6254274;28;20054;-81
2022/10/15 11:07:24;;;;;;;2.58;0.45;;;22.20;99.90;;;;;;6255036;28;20053;-83
2022/10/15 11:10:32;;;;;;;1.73;0.70;;;22.10;99.90;;;;;;6261675;28;20050;-84
2022/10/15 11:13:48;;;;;;;1.15;0.30;;;22.00;99.90;;;;;;6254814;28;20060;-82
2022/10/15 11:16:58;;;;;;;4.03;0.30;;;21.80;99.90;;;;;;6255522;28;20049;-85
2022/10/15 11:20:06;;;;;;;4.28;0.15;;;21.60;99.90;;;;;;6253583;28;20068;-82
2022/10/15 11:23:24;;;;;;;4.13;0.47;;;21.30;99.90;;;;;;6255096;28;20053;-84
2022/10/15 11:26:37;;;;;;;1.60;0.40;;;21.20;99.90;;;;;;6253227;28;20049;-81
2022/10/15 11:29:52;;;;;;;2.50;0.20;;;21.10;99.90;;;;;;6253574;28;20054;-82
2022/10/15 11:33:06;;;;;;;1.27;0.40;;;20.90;99.90;;;;;;6253326;28;20045;-82
2022/10/15 11:36:27;;;;;;;1.15;0.30;;;20.90;99.90;;;;;;6253150;28;20048;-82
2022/10/15 11:39:41;;;;;;;2.15;0.30;;;20.90;99.90;;;;;;6252910;28;20063;-82
2022/10/15 11:42:53;;;;;;;2.63;0.50;;;20.90;99.90;;;;;;6229828;28;20054;-83
2022/10/15 11:46:03;;;;;;;5.30;3.80;;;20.90;99.90;;;;;;6229696;28;20050;-83
2022/10/15 11:49:17;;;;;;;12.90;7.10;;;20.80;99.90;;;;;;6227558;28;20512;-81
2022/10/15 11:52:36;;;;;;;0.70;0.40;;;20.80;99.90;;;;;;6228295;28;20057;-82
2022/10/15 11:55:42;;;;;;;4.78;0.43;;;20.80;99.90;;;;;;6227739;28;20046;-82
2022/10/15 11:58:47;;;;;;;1.88;0.40;;;20.90;99.90;;;;;;6225932;28;20141;-81
2022/10/15 12:01:55;;;;;;;4.40;0.30;;;20.80;99.90;;;;;;6225662;28;20041;-81
2022/10/15 12:05:00;;;;;;;2.92;0.28;;;20.80;99.90;;;;;;6243772;28;20045;-81
2022/10/15 12:08:03;;;;;;;1.70;0.98;;;20.80;99.90;;;;;;6251509;28;20052;-83
2022/10/15 12:11:19;;;;;;;4.00;0.73;;;20.80;99.90;;;;;;6257543;28;20049;-82
2022/10/15 12:14:27;;;;;;;0.43;0.13;;;20.80;99.90;;;;;;6248747;28;20045;-82
2022/10/15 12:17:42;;;;;;;0.38;0.20;;;20.90;99.90;;;;;;6248411;28;20506;-81
2022/10/15 12:20:44;;;;;;;1.08;1.00;;;20.80;99.90;;;;;;6249070;28;20056;-81
2022/10/15 12:23:46;;;;;;;1.02;0.20;;;20.70;99.90;;;;;;6250224;28;20053;-81
2022/10/15 12:26:48;;;;;;;2.72;0.20;;;20.70;99.90;;;;;;6250310;28;20060;-84
2022/10/15 12:29:52;;;;;;;0.95;0.30;;;20.70;99.90;;;;;;6249700;28;20133;-84
2022/10/15 12:32:55;;;;;;;2.35;1.15;;;20.60;99.90;;;;;;6249230;28;20060;-83
2022/10/15 12:35:58;;;;;;;2.42;0.40;;;20.40;99.90;;;;;;6252270;28;20056;-82
2022/10/15 12:39:02;;;;;;;1.20;0.22;;;20.30;99.90;;;;;;6255021;28;20052;-83
2022/10/15 12:42:04;;;;;;;4.00;0.35;;;20.20;99.90;;;;;;6272749;28;20049;-85
2022/10/15 12:45:17;;;;;;;2.65;0.40;;;20.20;99.90;;;;;;6280749;28;20044;-83
2022/10/15 12:48:30;;;;;;;0.90;0.15;;;20.30;99.90;;;;;;6298710;28;20040;-82
2022/10/15 12:51:34;;;;;;;2.22;0.38;;;20.20;99.90;;;;;;6283090;28;20049;-85
2022/10/15 12:54:39;;;;;;;1.13;0.30;;;20.10;99.90;;;;;;6279622;28;20596;-85
2022/10/15 12:57:59;;;;;;;0.60;0.50;;;19.80;99.90;;;;;;6278989;28;20116;-85
2022/10/15 13:01:06;;;;;;;2.55;0.30;;;19.60;99.90;;;;;;6299786;22;20059;-82
2022/10/15 13:04:10;;;;;;;1.92;0.30;;;19.40;99.90;;;;;;6249200;28;20046;-83
2022/10/15 13:07:14;;;;;;;0.95;0.30;;;19.40;99.90;;;;;;6226347;28;20042;-82
2022/10/15 13:10:21;;;;;;;3.35;0.30;;;19.30;99.90;;;;;;6240286;28;20049;-82
2022/10/15 13:13:25;;;;;;;0.90;0.43;;;19.40;99.90;;;;;;6251612;28;20052;-82
2022/10/15 13:16:28;;;;;;;1.25;0.30;;;19.40;99.90;;;;;;6255220;28;20110;-82
2022/10/15 13:19:34;;;;;;;0.63;0.40;;;19.50;99.90;;;;;;6274953;28;20144;-82
2022/10/15 13:22:37;;;;;;;5.15;0.38;;;19.30;99.90;;;;;;6274855;28;20051;-82
2022/10/15 13:25:38;;;;;;;1.17;0.70;;;19.20;99.90;;;;;;6274909;28;20409;-82
2022/10/15 13:28:42;;;;;;;6.43;1.75;;;19.10;99.90;;;;;;6274024;28;20048;-82
2022/10/15 13:31:44;;;;;;;1.83;0.30;;;19.00;99.90;;;;;;6274398;28;20534;-82
2022/10/15 13:34:48;;;;;;;0.43;0.20;;;18.90;99.90;;;;;;6273974;28;20045;-82
2022/10/15 13:37:50;;;;;;;4.22;0.55;;;18.70;99.90;;;;;;6269490;28;20073;-83
2022/10/15 13:40:53;;;;;;;1.75;0.30;;;18.60;99.90;;;;;;6260111;28;20045;-83
2022/10/15 13:43:57;;;;;;;1.75;0.38;;;18.50;99.90;;;;;;6249062;28;20053;-83
2022/10/15 13:46:59;;;;;;;0.93;0.40;;;18.50;99.90;;;;;;6249680;28;20053;-82
2022/10/15 13:50:19;;;;;;;2.63;0.40;;;18.40;99.90;;;;;;6250478;28;20052;-83
2022/10/15 13:53:26;;;;;;;3.65;0.73;;;18.40;99.90;;;;;;6249557;28;20049;-83
2022/10/15 13:56:29;;;;;;;3.72;0.47;;;18.40;99.90;;;;;;6249839;28;20045;-82
2022/10/15 13:59:31;;;;;;;4.88;0.43;;;18.50;99.90;;;;;;6250344;28;20049;-82
2022/10/15 14:02:33;;;;;;;1.73;0.60;;;18.40;99.90;;;;;;6247948;28;20049;-82
2022/10/15 14:05:36;;;;;;;0.75;0.40;;;18.40;99.90;;;;;;6238007;28;20061;-82
2022/10/15 14:08:38;;;;;;;0.80;0.47;;;18.30;99.90;;;;;;6224483;28;20053;-82
2022/10/15 14:11:40;;;;;;;2.50;0.68;;;18.40;99.90;;;;;;6225352;28;20045;-83
2022/10/15 14:14:45;;;;;;;2.08;0.70;;;18.40;99.90;;;;;;6248154;28;20065;-82
2022/10/15 14:17:51;;;;;;;2.28;0.50;;;18.40;99.90;;;;;;6232509;28;20068;-82
2022/10/15 14:20:54;;;;;;;1.27;0.50;;;18.40;99.90;;;;;;6224321;28;20050;-82
2022/10/15 14:24:05;;;;;;;3.65;0.63;;;18.50;99.90;;;;;;6225400;28;20056;-82
2022/10/15 14:27:13;;;;;;;2.47;0.88;;;18.60;99.90;;;;;;6225771;28;20046;-82
2022/10/15 14:30:24;;;;;;;2.60;0.63;;;18.70;99.90;;;;;;6244770;28;20045;-82
2022/10/15 14:33:40;;;;;;;4.20;1.27;;;18.70;99.90;;;;;;6248476;28;20056;-82
2022/10/15 14:36:43;;;;;;;5.55;3.08;;;18.80;99.90;;;;;;6249116;28;20362;-82
2022/10/15 14:39:48;;;;;;;5.03;1.83;;;18.80;99.90;;;;;;6260088;28;20057;-82
2022/10/15 14:43:02;;;;;;;4.13;2.50;;;18.90;99.90;;;;;;6247422;28;20053;-81
2022/10/15 14:46:06;;;;;;;6.57;2.88;;;19.00;99.90;;;;;;6250694;28;20502;-82
2022/10/15 14:49:18;;;;;;;5.40;1.75;;;19.10;99.90;;;;;;6250125;28;20042;-82
2022/10/15 14:52:22;;;;;;;3.92;1.80;;;19.10;99.90;;;;;;6248101;28;20049;-84
2022/10/15 14:55:31;;;;;;;2.22;1.02;;;19.10;99.90;;;;;;6251634;28;20132;-82
2022/10/15 14:58:34;;;;;;;5.80;1.60;;;19.00;99.90;;;;;;6254170;28;20055;-83
2022/10/15 15:01:35;;;;;;;3.50;2.53;;;19.00;99.90;;;;;;6276709;28;20060;-83
2022/10/15 15:04:41;;;;;;;3.05;1.00;;;19.00;99.90;;;;;;6277084;28;20683;-83
2022/10/15 15:07:44;;;;;;;2.75;0.82;;;18.90;99.90;;;;;;6278075;28;20047;-83
2022/10/15 15:10:47;;;;;;;4.07;1.23;;;18.90;99.90;;;;;;6278582;28;20053;-84
2022/10/15 15:13:50;;;;;;;3.40;0.90;;;19.00;99.90;;;;;;6282558;28;20045;-84
2022/10/15 15:16:52;;;;;;;3.40;0.70;;;19.00;99.90;;;;;;6282890;28;20049;-83
2022/10/15 15:19:56;;;;;;;2.17;0.85;;;19.00;99.90;;;;;;6283047;28;20053;-83
2022/10/15 15:22:59;;;;;;;5.88;1.35;;;18.90;99.90;;;;;;6277564;28;20069;-83
2022/10/15 15:26:01;;;;;;;3.25;0.70;;;18.90;99.90;;;;;;6243186;28;20045;-82
2022/10/15 15:29:08;;;;;;;2.55;1.13;;;18.80;99.90;;;;;;6242130;28;20069;-84
2022/10/15 15:32:10;;;;;;;6.03;0.50;;;18.80;99.90;;;;;;6253292;28;20060;-83
2022/10/15 15:35:20;;;;;;;6.78;0.75;;;18.70;99.90;;;;;;6232051;28;20050;-82
2022/10/15 15:38:29;;;;;;;0.88;0.38;;;18.60;99.90;;;;;;6252581;28;20048;-83
2022/10/15 15:41:32;;;;;;;1.00;0.40;;;18.60;99.90;;;;;;6237472;28;20042;-83
2022/10/15 15:44:34;;;;;;;1.27;0.40;;;18.50;99.90;;;;;;6206580;28;20425;-83
2022/10/15 15:47:35;;;;;;;1.20;0.50;;;18.50;99.90;;;;;;6207685;28;20047;-83
2022/10/15 15:50:37;;;;;;;5.35;0.43;;;18.40;99.90;;;;;;6207323;28;20050;-83
2022/10/15 15:53:40;;;;;;;0.75;0.30;;;18.30;99.90;;;;;;6219618;28;20053;-83
2022/10/15 15:56:42;;;;;;;3.33;0.30;;;18.30;99.90;;;;;;6239029;28;20052;-83
2022/10/15 15:59:44;;;;;;;1.65;0.25;;;18.30;99.90;;;;;;6256501;28;20091;-83
2022/10/15 16:02:46;;;;;;;0.57;0.35;;;18.30;99.90;;;;;;6254912;28;20060;-83